Fidato — PB5970 — position and weather

sailwx.info

Track history (hours):
 
Tides and Currents Weather Stations Pressure Air Temp Water Temp Dewpoint Dewpoint Depression Visibility Wind Speed Wind Dir Waves Ship Positions

Fidato

Last reported at 2015-Apr-26 18:22 UTC. Time now 2015-Apr-27 10:34 UTC.
Position N 50°50' E 006°59'.

Length 135 m; draft 2.5 m.

Type: Ship. MMSI: 244670975.

Date/timePositionNaut miles runAvg speedWind from/ knotsBaromVisibWave heightAir tempDewpointWater temp
2015-Apr-26 18:22N 50°50' E 006°59'4 3.9
2015-Apr-26 17:20N 50°54' E 007°02'3 4.0
2015-Apr-26 16:33N 50°55' E 006°58'12 3.9
2015-Apr-26 13:33N 51°07' E 006°53'4 3.6
2015-Apr-26 12:33N 51°09' E 006°50'3 2.8
2015-Apr-26 11:34N 51°11' E 006°46'3 2.6
2015-Apr-26 10:33N 51°14' E 006°45'3 2.8
2015-Apr-26 09:32N 51°16' E 006°42'5 3.7
2015-Apr-26 08:09N 51°21' E 006°40'13 3.5
2015-Apr-26 04:33N 51°34' E 006°41'41 2.4
2015-Apr-25 11:24N 51°54' E 005°43'11 3.3
2015-Apr-25 08:09N 51°52' E 005°25'4 6.4
2015-Apr-25 07:33N 51°48' E 005°22'6 5.5
2015-Apr-25 06:28N 51°49' E 005°12'7 6.3
2015-Apr-25 05:17N 51°49' E 005°00'4 5.0
2015-Apr-25 04:33N 51°49' E 004°54'0 0.0
2015-Apr-25 03:33N 51°49' E 004°54'0 0.0
2015-Apr-25 02:33N 51°49' E 004°54'0 0.0
2015-Apr-25 01:33N 51°49' E 004°54'0 0.0
2015-Apr-25 00:33N 51°49' E 004°54'0 0.0
2015-Apr-24 23:33N 51°49' E 004°54'0 0.0
2015-Apr-24 22:33N 51°49' E 004°54'6 5.9
2015-Apr-24 21:34N 51°49' E 004°45'4 3.7
2015-Apr-24 20:33N 51°49' E 004°39'2 1.6
2015-Apr-24 19:33N 51°48' E 004°37'9 9.1
2015-Apr-24 18:33N 51°51' E 004°22'9 9.1
2015-Apr-24 17:33N 51°56' E 004°10'4 4.0
2015-Apr-24 16:33N 51°56' E 004°04'0 0.0
2015-Apr-24 15:33N 51°56' E 004°04'0 0.0
2015-Apr-24 14:33N 51°56' E 004°04'1 1.0
2015-Apr-24 13:33N 51°56' E 004°02'0 0.0
2015-Apr-24 12:33N 51°56' E 004°02'1 0.6
2015-Apr-24 11:33N 51°56' E 004°03'10 9.8
2015-Apr-24 10:33N 51°52' E 004°18'9 9.5
2015-Apr-24 09:34N 51°50' E 004°32'7 7.1
2015-Apr-24 08:33N 51°44' E 004°38'12 6.2
2015-Apr-24 06:33N 51°39' E 004°19'6 5.7
2015-Apr-24 05:33N 51°40' E 004°09'0 0.5
2015-Apr-24 04:33N 51°40' E 004°09'0 0.0
2015-Apr-24 03:23N 51°40' E 004°09'0 0.0
2015-Apr-24 02:30N 51°40' E 004°09'0 0.0
2015-Apr-24 01:33N 51°40' E 004°09'0 0.0
2015-Apr-24 00:32N 51°40' E 004°09'0 0.0
2015-Apr-23 23:33N 51°40' E 004°09'1 1.3
2015-Apr-23 22:33N 51°39' E 004°07'8 7.9
2015-Apr-23 21:33N 51°33' E 003°59'7 6.9
2015-Apr-23 20:33N 51°27' E 004°01'7 7.2
2015-Apr-23 19:33N 51°21' E 003°53'3 2.9
2015-Apr-23 18:33N 51°20' E 003°49'0 0.2
2015-Apr-23 17:33N 51°20' E 003°49'4 3.7
2015-Apr-23 16:34N 51°16' E 003°50'7 6.5
2015-Apr-23 15:33N 51°10' E 003°47'0 0.0
2015-Apr-23 14:33N 51°10' E 003°47'0 0.0
2015-Apr-23 13:33N 51°10' E 003°47'0 0.0
2015-Apr-23 12:33N 51°10' E 003°47'0 0.0
2015-Apr-23 11:33N 51°10' E 003°47'0 0.0
2015-Apr-23 10:33N 51°10' E 003°47'0 0.0
2015-Apr-23 09:33N 51°10' E 003°47'0 0.0
2015-Apr-23 08:33N 51°10' E 003°47'0 0.0
2015-Apr-23 07:33N 51°10' E 003°47'0 0.0
2015-Apr-23 06:34N 51°10' E 003°47'0 0.0
2015-Apr-23 05:33N 51°10' E 003°47'0 0.0
2015-Apr-23 04:33N 51°10' E 003°47'0 0.0
2015-Apr-23 03:33N 51°10' E 003°47'0 0.0
2015-Apr-23 02:33N 51°10' E 003°47'0 0.0
2015-Apr-23 01:33N 51°10' E 003°47'0 0.0
2015-Apr-23 00:33N 51°10' E 003°47'0 0.0
2015-Apr-22 23:34N 51°10' E 003°47'0 0.0
2015-Apr-22 22:33N 51°10' E 003°47'0 0.4
2015-Apr-22 21:33N 51°10' E 003°46'0 0.0
2015-Apr-22 20:30N 51°10' E 003°46'0 0.0
2015-Apr-22 19:33N 51°10' E 003°46'0 0.0
2015-Apr-22 18:33N 51°10' E 003°46'0 0.0
2015-Apr-22 17:32N 51°10' E 003°46'0 0.0
2015-Apr-22 16:33N 51°10' E 003°46'0 0.0
2015-Apr-22 15:33N 51°10' E 003°46'0 0.0
2015-Apr-22 14:33N 51°10' E 003°46'0 0.0
2015-Apr-22 13:32N 51°10' E 003°46'0 0.0
2015-Apr-22 12:33N 51°10' E 003°46'0 0.0
2015-Apr-22 11:33N 51°10' E 003°46'0 0.0
2015-Apr-22 10:33N 51°10' E 003°46'0 0.0
2015-Apr-22 09:33N 51°10' E 003°46'0 0.0
2015-Apr-22 08:30N 51°10' E 003°46'0 0.0
2015-Apr-22 07:33N 51°10' E 003°46'0 0.0
2015-Apr-22 06:33N 51°10' E 003°46'0 0.0
2015-Apr-22 05:33N 51°10' E 003°46'0 0.0
2015-Apr-22 04:33N 51°10' E 003°46'0 0.0
2015-Apr-22 03:33N 51°10' E 003°46'0 0.0
2015-Apr-22 02:32N 51°10' E 003°46'0 0.0
2015-Apr-22 01:32N 51°10' E 003°46'0 0.0
2015-Apr-22 00:33N 51°10' E 003°46'0 0.0
2015-Apr-21 23:33N 51°10' E 003°46'0 0.0
2015-Apr-21 22:33N 51°10' E 003°46'0 0.0
2015-Apr-21 21:31N 51°10' E 003°46'0 0.2
2015-Apr-21 20:33N 51°10' E 003°46'6 6.5
2015-Apr-21 19:34N 51°16' E 003°50'5 4.6
2015-Apr-21 18:33N 51°20' E 003°49'2 2.4
2015-Apr-21 17:33N 51°21' E 003°52'7 7.4
2015-Apr-21 16:33N 51°25' E 004°03'6 6.0
2015-Apr-21 15:30N 51°23' E 004°12'4 3.9
2015-Apr-21 14:30N 51°21' E 004°17'1 0.8
2015-Apr-21 13:34N 51°22' E 004°17'0 0.0
2015-Apr-21 12:04N 51°22' E 004°17'0 0.0
2015-Apr-21 11:28N 51°22' E 004°17'0 0.0
2015-Apr-21 10:33N 51°22' E 004°17'0 0.0
2015-Apr-21 09:31N 51°22' E 004°17'0 0.0
2015-Apr-21 08:19N 51°22' E 004°17'0 0.0
2015-Apr-21 07:16N 51°22' E 004°17'0 0.0
2015-Apr-21 01:27N 51°22' E 004°17'0 0.0
2015-Apr-21 00:21N 51°22' E 004°17'0 0.0
2015-Apr-20 23:32N 51°22' E 004°17'0 0.0
2015-Apr-20 22:26N 51°22' E 004°17'0 0.0
2015-Apr-20 21:28N 51°22' E 004°17'0 0.0
2015-Apr-20 19:29N 51°22' E 004°17'0 0.0
2015-Apr-20 17:16N 51°22' E 004°17'0 0.0
2015-Apr-20 16:32N 51°22' E 004°17'0 0.1
2015-Apr-20 15:22N 51°22' E 004°17'3 4.0
2015-Apr-20 14:33N 51°19' E 004°19'4 4.0
2015-Apr-20 13:34N 51°15' E 004°21'0 0.0
2015-Apr-20 12:34N 51°15' E 004°21'0 0.0
2015-Apr-20 11:34N 51°15' E 004°21'0 0.0
2015-Apr-20 10:34N 51°15' E 004°21'0 0.0
2015-Apr-20 09:33N 51°15' E 004°21'0 0.0
2015-Apr-20 08:33N 51°15' E 004°21'0 0.0
2015-Apr-20 07:33N 51°15' E 004°21'0 0.0
2015-Apr-20 06:33N 51°15' E 004°21'0 0.0
2015-Apr-20 05:34N 51°15' E 004°21'0 0.0
2015-Apr-20 04:33N 51°15' E 004°21'0 0.0
2015-Apr-20 03:33N 51°15' E 004°21'2 2.1
2015-Apr-20 02:33N 51°17' E 004°20'5 5.2
2015-Apr-20 01:32N 51°22' E 004°17'0 0.0
2015-Apr-19 23:27N 51°22' E 004°17'0 0.0
2015-Apr-19 22:33N 51°22' E 004°17'0 0.0
2015-Apr-19 21:31N 51°22' E 004°17'0 0.0
2015-Apr-19 20:21N 51°22' E 004°17'0 0.0
2015-Apr-19 19:21N 51°22' E 004°17'0 0.0
2015-Apr-19 18:31N 51°22' E 004°17'0 0.0
2015-Apr-19 17:34N 51°22' E 004°17'0 0.0
2015-Apr-19 16:26N 51°22' E 004°17'0 0.0
2015-Apr-19 15:33N 51°22' E 004°17'0 0.0
2015-Apr-19 14:34N 51°22' E 004°17'0 0.0
2015-Apr-19 13:29N 51°22' E 004°17'0 0.0
2015-Apr-19 12:31N 51°22' E 004°17'0 0.0
2015-Apr-19 11:33N 51°22' E 004°17'0 0.0
2015-Apr-19 09:33N 51°22' E 004°17'0 0.0
2015-Apr-19 08:33N 51°22' E 004°17'0 0.0
2015-Apr-19 07:33N 51°22' E 004°17'0 0.0
2015-Apr-19 06:33N 51°22' E 004°17'0 0.0
2015-Apr-19 05:33N 51°22' E 004°17'0 0.2
2015-Apr-19 04:33N 51°22' E 004°17'0 0.0
2015-Apr-19 03:33N 51°22' E 004°17'0 0.0
2015-Apr-19 01:32N 51°22' E 004°17'0 0.0
2015-Apr-19 00:20N 51°22' E 004°17'0 0.0
2015-Apr-18 23:31N 51°22' E 004°17'0 0.0
2015-Apr-18 22:34N 51°22' E 004°17'0 0.0
2015-Apr-18 21:27N 51°22' E 004°17'0 0.0
2015-Apr-18 20:24N 51°22' E 004°17'0 0.0
2015-Apr-18 19:33N 51°22' E 004°17'0 0.0
2015-Apr-18 18:33N 51°22' E 004°17'0 0.0
2015-Apr-18 17:33N 51°22' E 004°17'0 0.0
2015-Apr-18 16:33N 51°22' E 004°17'1 1.1
2015-Apr-18 15:33N 51°21' E 004°17'1 0.7
2015-Apr-18 14:33N 51°21' E 004°16'3 3.1
2015-Apr-18 13:33N 51°18' E 004°16'0 0.0
2015-Apr-18 12:33N 51°18' E 004°16'1 0.8
2015-Apr-18 11:33N 51°18' E 004°16'3 2.7
2015-Apr-18 10:33N 51°21' E 004°16'2 2.3
2015-Apr-18 09:33N 51°19' E 004°17'0 0.0
2015-Apr-18 08:33N 51°19' E 004°17'0 0.0
2015-Apr-18 07:33N 51°19' E 004°17'0 0.0
2015-Apr-18 06:33N 51°19' E 004°17'0 0.0
2015-Apr-18 05:34N 51°19' E 004°17'0 0.0
2015-Apr-18 04:34N 51°19' E 004°17'0 0.0
2015-Apr-18 03:33N 51°19' E 004°17'0 0.0
2015-Apr-18 02:33N 51°19' E 004°17'0 0.0
2015-Apr-18 01:33N 51°19' E 004°17'2 1.7
2015-Apr-18 00:33N 51°20' E 004°16'0 0.0
2015-Apr-17 23:33N 51°20' E 004°16'0 0.0
2015-Apr-17 22:34N 51°20' E 004°16'0 0.0
2015-Apr-17 21:33N 51°20' E 004°16'0 0.0
2015-Apr-17 20:33N 51°20' E 004°16'1 0.5
2015-Apr-17 19:32N 51°21' E 004°17'0 0.5
2015-Apr-17 18:34N 51°21' E 004°18'0 0.0
2015-Apr-17 17:33N 51°21' E 004°18'2 2.2
2015-Apr-17 16:32N 51°23' E 004°16'5 4.7
2015-Apr-17 15:33N 51°27' E 004°14'7 6.9
2015-Apr-17 14:33N 51°34' E 004°14'7 6.0
2015-Apr-17 13:25N 51°40' E 004°20'4 4.4
2015-Apr-17 12:32N 51°42' E 004°25'6 6.1
2015-Apr-17 11:33N 51°42' E 004°35'8 8.0
2015-Apr-17 10:33N 51°47' E 004°45'17 5.1
2015-Apr-17 07:14N 51°49' E 005°12'6 8.5
2015-Apr-17 06:33N 51°48' E 005°22'12 1.4
2015-Apr-16 22:24N 51°54' E 005°38'8 9.1
2015-Apr-16 21:33N 51°52' E 005°50'8 6.9
2015-Apr-16 20:27N 51°52' E 006°03'9 9.4
2015-Apr-16 19:31N 51°49' E 006°16'  
Track history (hours):
 
Tides and Currents Weather Stations Pressure Air Temp Water Temp Dewpoint Dewpoint Depression Visibility Wind Speed Wind Dir Waves Ship Positions

Fidato

Last reported at 2015-Apr-26 18:22 UTC. Time now 2015-Apr-27 10:34 UTC.
Position N 50°50' E 006°59'.

Length 135 m; draft 2.5 m.

Type: Ship. MMSI: 244670975.

Date/timePositionNaut miles runAvg speedWind from/ knotsBaromVisibWave heightAir tempDewpointWater temp
2015-Apr-26 18:22N 50°50' E 006°59'4 3.9
2015-Apr-26 17:20N 50°54' E 007°02'3 4.0
2015-Apr-26 16:33N 50°55' E 006°58'12 3.9
2015-Apr-26 13:33N 51°07' E 006°53'4 3.6
2015-Apr-26 12:33N 51°09' E 006°50'3 2.8
2015-Apr-26 11:34N 51°11' E 006°46'3 2.6
2015-Apr-26 10:33N 51°14' E 006°45'3 2.8
2015-Apr-26 09:32N 51°16' E 006°42'5 3.7
2015-Apr-26 08:09N 51°21' E 006°40'13 3.5
2015-Apr-26 04:33N 51°34' E 006°41'41 2.4
2015-Apr-25 11:24N 51°54' E 005°43'11 3.3
2015-Apr-25 08:09N 51°52' E 005°25'4 6.4
2015-Apr-25 07:33N 51°48' E 005°22'6 5.5
2015-Apr-25 06:28N 51°49' E 005°12'7 6.3
2015-Apr-25 05:17N 51°49' E 005°00'4 5.0
2015-Apr-25 04:33N 51°49' E 004°54'0 0.0
2015-Apr-25 03:33N 51°49' E 004°54'0 0.0
2015-Apr-25 02:33N 51°49' E 004°54'0 0.0
2015-Apr-25 01:33N 51°49' E 004°54'0 0.0
2015-Apr-25 00:33N 51°49' E 004°54'0 0.0
2015-Apr-24 23:33N 51°49' E 004°54'0 0.0
2015-Apr-24 22:33N 51°49' E 004°54'6 5.9
2015-Apr-24 21:34N 51°49' E 004°45'4 3.7
2015-Apr-24 20:33N 51°49' E 004°39'2 1.6
2015-Apr-24 19:33N 51°48' E 004°37'9 9.1
2015-Apr-24 18:33N 51°51' E 004°22'9 9.1
2015-Apr-24 17:33N 51°56' E 004°10'4 4.0
2015-Apr-24 16:33N 51°56' E 004°04'0 0.0
2015-Apr-24 15:33N 51°56' E 004°04'0 0.0
2015-Apr-24 14:33N 51°56' E 004°04'1 1.0
2015-Apr-24 13:33N 51°56' E 004°02'0 0.0
2015-Apr-24 12:33N 51°56' E 004°02'1 0.6
2015-Apr-24 11:33N 51°56' E 004°03'10 9.8
2015-Apr-24 10:33N 51°52' E 004°18'9 9.5
2015-Apr-24 09:34N 51°50' E 004°32'7 7.1
2015-Apr-24 08:33N 51°44' E 004°38'12 6.2
2015-Apr-24 06:33N 51°39' E 004°19'6 5.7
2015-Apr-24 05:33N 51°40' E 004°09'0 0.5
2015-Apr-24 04:33N 51°40' E 004°09'0 0.0
2015-Apr-24 03:23N 51°40' E 004°09'0 0.0
2015-Apr-24 02:30N 51°40' E 004°09'0 0.0
2015-Apr-24 01:33N 51°40' E 004°09'0 0.0
2015-Apr-24 00:32N 51°40' E 004°09'0 0.0
2015-Apr-23 23:33N 51°40' E 004°09'1 1.3
2015-Apr-23 22:33N 51°39' E 004°07'8 7.9
2015-Apr-23 21:33N 51°33' E 003°59'7 6.9
2015-Apr-23 20:33N 51°27' E 004°01'7 7.2
2015-Apr-23 19:33N 51°21' E 003°53'3 2.9
2015-Apr-23 18:33N 51°20' E 003°49'0 0.2
2015-Apr-23 17:33N 51°20' E 003°49'4 3.7
2015-Apr-23 16:34N 51°16' E 003°50'7 6.5
2015-Apr-23 15:33N 51°10' E 003°47'0 0.0
2015-Apr-23 14:33N 51°10' E 003°47'0 0.0
2015-Apr-23 13:33N 51°10' E 003°47'0 0.0
2015-Apr-23 12:33N 51°10' E 003°47'0 0.0
2015-Apr-23 11:33N 51°10' E 003°47'0 0.0
2015-Apr-23 10:33N 51°10' E 003°47'0 0.0
2015-Apr-23 09:33N 51°10' E 003°47'0 0.0
2015-Apr-23 08:33N 51°10' E 003°47'0 0.0
2015-Apr-23 07:33N 51°10' E 003°47'0 0.0
2015-Apr-23 06:34N 51°10' E 003°47'0 0.0
2015-Apr-23 05:33N 51°10' E 003°47'0 0.0
2015-Apr-23 04:33N 51°10' E 003°47'0 0.0
2015-Apr-23 03:33N 51°10' E 003°47'0 0.0
2015-Apr-23 02:33N 51°10' E 003°47'0 0.0
2015-Apr-23 01:33N 51°10' E 003°47'0 0.0
2015-Apr-23 00:33N 51°10' E 003°47'0 0.0
2015-Apr-22 23:34N 51°10' E 003°47'0 0.0
2015-Apr-22 22:33N 51°10' E 003°47'0 0.4
2015-Apr-22 21:33N 51°10' E 003°46'0 0.0
2015-Apr-22 20:30N 51°10' E 003°46'0 0.0
2015-Apr-22 19:33N 51°10' E 003°46'0 0.0
2015-Apr-22 18:33N 51°10' E 003°46'0 0.0
2015-Apr-22 17:32N 51°10' E 003°46'0 0.0
2015-Apr-22 16:33N 51°10' E 003°46'0 0.0
2015-Apr-22 15:33N 51°10' E 003°46'0 0.0
2015-Apr-22 14:33N 51°10' E 003°46'0 0.0
2015-Apr-22 13:32N 51°10' E 003°46'0 0.0
2015-Apr-22 12:33N 51°10' E 003°46'0 0.0
2015-Apr-22 11:33N 51°10' E 003°46'0 0.0
2015-Apr-22 10:33N 51°10' E 003°46'0 0.0
2015-Apr-22 09:33N 51°10' E 003°46'0 0.0
2015-Apr-22 08:30N 51°10' E 003°46'0 0.0
2015-Apr-22 07:33N 51°10' E 003°46'0 0.0
2015-Apr-22 06:33N 51°10' E 003°46'0 0.0
2015-Apr-22 05:33N 51°10' E 003°46'0 0.0
2015-Apr-22 04:33N 51°10' E 003°46'0 0.0
2015-Apr-22 03:33N 51°10' E 003°46'0 0.0
2015-Apr-22 02:32N 51°10' E 003°46'0 0.0
2015-Apr-22 01:32N 51°10' E 003°46'0 0.0
2015-Apr-22 00:33N 51°10' E 003°46'0 0.0
2015-Apr-21 23:33N 51°10' E 003°46'0 0.0
2015-Apr-21 22:33N 51°10' E 003°46'0 0.0
2015-Apr-21 21:31N 51°10' E 003°46'0 0.2
2015-Apr-21 20:33N 51°10' E 003°46'6 6.5
2015-Apr-21 19:34N 51°16' E 003°50'5 4.6
2015-Apr-21 18:33N 51°20' E 003°49'2 2.4
2015-Apr-21 17:33N 51°21' E 003°52'7 7.4
2015-Apr-21 16:33N 51°25' E 004°03'6 6.0
2015-Apr-21 15:30N 51°23' E 004°12'4 3.9
2015-Apr-21 14:30N 51°21' E 004°17'1 0.8
2015-Apr-21 13:34N 51°22' E 004°17'0 0.0
2015-Apr-21 12:04N 51°22' E 004°17'0 0.0
2015-Apr-21 11:28N 51°22' E 004°17'0 0.0
2015-Apr-21 10:33N 51°22' E 004°17'0 0.0
2015-Apr-21 09:31N 51°22' E 004°17'0 0.0
2015-Apr-21 08:19N 51°22' E 004°17'0 0.0
2015-Apr-21 07:16N 51°22' E 004°17'0 0.0
2015-Apr-21 01:27N 51°22' E 004°17'0 0.0
2015-Apr-21 00:21N 51°22' E 004°17'0 0.0
2015-Apr-20 23:32N 51°22' E 004°17'0 0.0
2015-Apr-20 22:26N 51°22' E 004°17'0 0.0
2015-Apr-20 21:28N 51°22' E 004°17'0 0.0
2015-Apr-20 19:29N 51°22' E 004°17'0 0.0
2015-Apr-20 17:16N 51°22' E 004°17'0 0.0
2015-Apr-20 16:32N 51°22' E 004°17'0 0.1
2015-Apr-20 15:22N 51°22' E 004°17'3 4.0
2015-Apr-20 14:33N 51°19' E 004°19'4 4.0
2015-Apr-20 13:34N 51°15' E 004°21'0 0.0
2015-Apr-20 12:34N 51°15' E 004°21'0 0.0
2015-Apr-20 11:34N 51°15' E 004°21'0 0.0
2015-Apr-20 10:34N 51°15' E 004°21'0 0.0
2015-Apr-20 09:33N 51°15' E 004°21'0 0.0
2015-Apr-20 08:33N 51°15' E 004°21'0 0.0
2015-Apr-20 07:33N 51°15' E 004°21'0 0.0
2015-Apr-20 06:33N 51°15' E 004°21'0 0.0
2015-Apr-20 05:34N 51°15' E 004°21'0 0.0
2015-Apr-20 04:33N 51°15' E 004°21'0 0.0
2015-Apr-20 03:33N 51°15' E 004°21'2 2.1
2015-Apr-20 02:33N 51°17' E 004°20'5 5.2
2015-Apr-20 01:32N 51°22' E 004°17'0 0.0
2015-Apr-19 23:27N 51°22' E 004°17'0 0.0
2015-Apr-19 22:33N 51°22' E 004°17'0 0.0
2015-Apr-19 21:31N 51°22' E 004°17'0 0.0
2015-Apr-19 20:21N 51°22' E 004°17'0 0.0
2015-Apr-19 19:21N 51°22' E 004°17'0 0.0
2015-Apr-19 18:31N 51°22' E 004°17'0 0.0
2015-Apr-19 17:34N 51°22' E 004°17'0 0.0
2015-Apr-19 16:26N 51°22' E 004°17'0 0.0
2015-Apr-19 15:33N 51°22' E 004°17'0 0.0
2015-Apr-19 14:34N 51°22' E 004°17'0 0.0
2015-Apr-19 13:29N 51°22' E 004°17'0 0.0
2015-Apr-19 12:31N 51°22' E 004°17'0 0.0
2015-Apr-19 11:33N 51°22' E 004°17'0 0.0
2015-Apr-19 09:33N 51°22' E 004°17'0 0.0
2015-Apr-19 08:33N 51°22' E 004°17'0 0.0
2015-Apr-19 07:33N 51°22' E 004°17'0 0.0
2015-Apr-19 06:33N 51°22' E 004°17'0 0.0
2015-Apr-19 05:33N 51°22' E 004°17'0 0.2
2015-Apr-19 04:33N 51°22' E 004°17'0 0.0
2015-Apr-19 03:33N 51°22' E 004°17'0 0.0
2015-Apr-19 01:32N 51°22' E 004°17'0 0.0
2015-Apr-19 00:20N 51°22' E 004°17'0 0.0
2015-Apr-18 23:31N 51°22' E 004°17'0 0.0
2015-Apr-18 22:34N 51°22' E 004°17'0 0.0
2015-Apr-18 21:27N 51°22' E 004°17'0 0.0
2015-Apr-18 20:24N 51°22' E 004°17'0 0.0
2015-Apr-18 19:33N 51°22' E 004°17'0 0.0
2015-Apr-18 18:33N 51°22' E 004°17'0 0.0
2015-Apr-18 17:33N 51°22' E 004°17'0 0.0
2015-Apr-18 16:33N 51°22' E 004°17'1 1.1
2015-Apr-18 15:33N 51°21' E 004°17'1 0.7
2015-Apr-18 14:33N 51°21' E 004°16'3 3.1
2015-Apr-18 13:33N 51°18' E 004°16'0 0.0
2015-Apr-18 12:33N 51°18' E 004°16'1 0.8
2015-Apr-18 11:33N 51°18' E 004°16'3 2.7
2015-Apr-18 10:33N 51°21' E 004°16'2 2.3
2015-Apr-18 09:33N 51°19' E 004°17'0 0.0
2015-Apr-18 08:33N 51°19' E 004°17'0 0.0
2015-Apr-18 07:33N 51°19' E 004°17'0 0.0
2015-Apr-18 06:33N 51°19' E 004°17'0 0.0
2015-Apr-18 05:34N 51°19' E 004°17'0 0.0
2015-Apr-18 04:34N 51°19' E 004°17'0 0.0
2015-Apr-18 03:33N 51°19' E 004°17'0 0.0
2015-Apr-18 02:33N 51°19' E 004°17'0 0.0
2015-Apr-18 01:33N 51°19' E 004°17'2 1.7
2015-Apr-18 00:33N 51°20' E 004°16'0 0.0
2015-Apr-17 23:33N 51°20' E 004°16'0 0.0
2015-Apr-17 22:34N 51°20' E 004°16'0 0.0
2015-Apr-17 21:33N 51°20' E 004°16'0 0.0
2015-Apr-17 20:33N 51°20' E 004°16'1 0.5
2015-Apr-17 19:32N 51°21' E 004°17'0 0.5
2015-Apr-17 18:34N 51°21' E 004°18'0 0.0
2015-Apr-17 17:33N 51°21' E 004°18'2 2.2
2015-Apr-17 16:32N 51°23' E 004°16'5 4.7
2015-Apr-17 15:33N 51°27' E 004°14'7 6.9
2015-Apr-17 14:33N 51°34' E 004°14'7 6.0
2015-Apr-17 13:25N 51°40' E 004°20'4 4.4
2015-Apr-17 12:32N 51°42' E 004°25'6 6.1
2015-Apr-17 11:33N 51°42' E 004°35'8 8.0
2015-Apr-17 10:33N 51°47' E 004°45'17 5.1
2015-Apr-17 07:14N 51°49' E 005°12'6 8.5
2015-Apr-17 06:33N 51°48' E 005°22'12 1.4
2015-Apr-16 22:24N 51°54' E 005°38'8 9.1
2015-Apr-16 21:33N 51°52' E 005°50'8 6.9
2015-Apr-16 20:27N 51°52' E 006°03'9 9.4
2015-Apr-16 19:31N 51°49' E 006°16'  

Dump ship's entire track history